WZZ182 UGTB-URSS
Flight info
| Callsign | WZZ182 |
|---|---|
| Flight time | 0h 50m |
| Altitude | 38000 |
| Route | DF DCT GIMUR DCT TAGAR L850 BANUT BANUT1K |
| Aircraft | A20N/M-SDE2E3FGHIRWXY/LB1 |
Departure
| Time | 2026-04-23 17:03 |
|---|---|
| Airport | Tbilisi International Airport (UGTB) |
Arrival
| Time | 2026-04-23 17:54 |
|---|---|
| Airport | Sochi International Airport (URSS) |
| Time | Latitude | Longitude | Altitude | Speed | Heading |
|---|---|---|---|---|---|
| 2026-04-23 16:18 | 41.66832 | 44.96454 | 1526 ft | 0 kts | 44° |
| 2026-04-23 16:55 | 41.66830 | 44.96451 | 1526 ft | 1 kts | 44° |
| 2026-04-23 16:56 | 41.66819 | 44.96438 | 1520 ft | 2 kts | 44° |
| 2026-04-23 16:56 | 41.66809 | 44.96425 | 1519 ft | 3 kts | 44° |
| 2026-04-23 16:56 | 41.66796 | 44.96408 | 1520 ft | 2 kts | 44° |
| 2026-04-23 16:56 | 41.66787 | 44.96396 | 1521 ft | 2 kts | 51° |
| 2026-04-23 16:57 | 41.66779 | 44.96379 | 1521 ft | 2 kts | 68° |
| 2026-04-23 16:57 | 41.66775 | 44.96360 | 1522 ft | 2 kts | 100° |
| 2026-04-23 16:57 | 41.66779 | 44.96346 | 1521 ft | 1 kts | 132° |
| 2026-04-23 16:59 | 41.66777 | 44.96349 | 1521 ft | 2 kts | 133° |
| 2026-04-23 16:59 | 41.66757 | 44.96381 | 1524 ft | 7 kts | 130° |
| 2026-04-23 17:00 | 41.66712 | 44.96425 | 1522 ft | 10 kts | 161° |
| 2026-04-23 17:00 | 41.66636 | 44.96414 | 1519 ft | 13 kts | 194° |
| 2026-04-23 17:00 | 41.66540 | 44.96384 | 1521 ft | 16 kts | 193° |
| 2026-04-23 17:00 | 41.66425 | 44.96347 | 1522 ft | 18 kts | 194° |
| 2026-04-23 17:01 | 41.66301 | 44.96306 | 1525 ft | 17 kts | 193° |
| 2026-04-23 17:01 | 41.66176 | 44.96318 | 1522 ft | 19 kts | 159° |
| 2026-04-23 17:01 | 41.66065 | 44.96435 | 1524 ft | 21 kts | 136° |
| 2026-04-23 17:01 | 41.65968 | 44.96559 | 1520 ft | 16 kts | 137° |
| 2026-04-23 17:02 | 41.65916 | 44.96601 | 1526 ft | 12 kts | 170° |
| 2026-04-23 17:02 | 41.65855 | 44.96583 | 1521 ft | 2 kts | 194° |
| 2026-04-23 17:02 | 41.65848 | 44.96549 | 1520 ft | 10 kts | 254° |
| 2026-04-23 17:02 | 41.65856 | 44.96443 | 1524 ft | 10 kts | 301° |
| 2026-04-23 17:03 | 41.65905 | 44.96376 | 1521 ft | 14 kts | 317° |
| 2026-04-23 17:03 | 41.66207 | 44.96000 | 1522 ft | 106 kts | 316° |
| 2026-04-23 17:03 | 41.66928 | 44.95093 | 1632 ft | 169 kts | 317° |
| 2026-04-23 17:03 | 41.67828 | 44.93944 | 2332 ft | 186 kts | 315° |
| 2026-04-23 17:04 | 41.68792 | 44.92696 | 3162 ft | 200 kts | 314° |
| 2026-04-23 17:04 | 41.69813 | 44.91348 | 3976 ft | 216 kts | 315° |
| 2026-04-23 17:04 | 41.70961 | 44.89882 | 4639 ft | 239 kts | 315° |
| 2026-04-23 17:04 | 41.72229 | 44.88297 | 5347 ft | 258 kts | 315° |
| 2026-04-23 17:05 | 41.73568 | 44.86638 | 6286 ft | 267 kts | 314° |
| 2026-04-23 17:05 | 41.74946 | 44.84933 | 7265 ft | 272 kts | 313° |
| 2026-04-23 17:05 | 41.76154 | 44.83007 | 8352 ft | 272 kts | 304° |
| 2026-04-23 17:05 | 41.77338 | 44.81005 | 9410 ft | 276 kts | 304° |
| 2026-04-23 17:06 | 41.78545 | 44.78983 | 10387 ft | 281 kts | 304° |
| 2026-04-23 17:06 | 41.79816 | 44.76856 | 10871 ft | 304 kts | 306° |
| 2026-04-23 17:06 | 41.81205 | 44.74578 | 11287 ft | 326 kts | 306° |
| 2026-04-23 17:06 | 41.82651 | 44.72178 | 12090 ft | 333 kts | 306° |
| 2026-04-23 17:07 | 41.84096 | 44.69743 | 13080 ft | 336 kts | 305° |
| 2026-04-23 17:07 | 41.85533 | 44.67287 | 13923 ft | 341 kts | 305° |
| 2026-04-23 17:07 | 41.86999 | 44.64762 | 14760 ft | 345 kts | 304° |
| 2026-04-23 17:07 | 41.88476 | 44.62210 | 15576 ft | 348 kts | 304° |
| 2026-04-23 17:08 | 41.89964 | 44.59625 | 16388 ft | 352 kts | 303° |
| 2026-04-23 17:08 | 41.91285 | 44.56859 | 17193 ft | 352 kts | 296° |
| 2026-04-23 17:08 | 41.92316 | 44.53869 | 17992 ft | 353 kts | 288° |
| 2026-04-23 17:08 | 41.93074 | 44.50723 | 18706 ft | 354 kts | 284° |
| 2026-04-23 17:09 | 41.93797 | 44.47545 | 19395 ft | 357 kts | 285° |
| 2026-04-23 17:09 | 41.94537 | 44.44342 | 19720 ft | 360 kts | 285° |
| 2026-04-23 17:09 | 41.95280 | 44.41137 | 19809 ft | 359 kts | 285° |
| 2026-04-23 17:09 | 41.96022 | 44.37928 | 19821 ft | 359 kts | 285° |
| 2026-04-23 17:10 | 41.96513 | 44.35803 | 19839 ft | 359 kts | 285° |
| 2026-04-23 17:10 | 41.97253 | 44.32584 | 20078 ft | 363 kts | 284° |
| 2026-04-23 17:10 | 41.97998 | 44.29345 | 20864 ft | 362 kts | 284° |
| 2026-04-23 17:10 | 41.98744 | 44.26097 | 21612 ft | 365 kts | 284° |
| 2026-04-23 17:11 | 41.99494 | 44.22824 | 22272 ft | 368 kts | 284° |
| 2026-04-23 17:11 | 42.00250 | 44.19516 | 22978 ft | 371 kts | 284° |
| 2026-04-23 17:11 | 42.01010 | 44.16192 | 23557 ft | 375 kts | 284° |
| 2026-04-23 17:11 | 42.01768 | 44.12868 | 23770 ft | 376 kts | 284° |
| 2026-04-23 17:12 | 42.02569 | 44.09524 | 23841 ft | 376 kts | 286° |
| 2026-04-23 17:12 | 42.03413 | 44.06194 | 23846 ft | 376 kts | 286° |
| 2026-04-23 17:12 | 42.04262 | 44.02875 | 23852 ft | 376 kts | 286° |
| 2026-04-23 17:12 | 42.05110 | 43.99541 | 23856 ft | 376 kts | 286° |
| 2026-04-23 17:13 | 42.05949 | 43.96215 | 23851 ft | 375 kts | 286° |
| 2026-04-23 17:13 | 42.06783 | 43.92886 | 23858 ft | 375 kts | 285° |
| 2026-04-23 17:13 | 42.07614 | 43.89555 | 23867 ft | 376 kts | 285° |
| 2026-04-23 17:13 | 42.08446 | 43.86206 | 24230 ft | 379 kts | 285° |
| 2026-04-23 17:14 | 42.09279 | 43.82855 | 24933 ft | 377 kts | 285° |
| 2026-04-23 17:14 | 42.10115 | 43.79489 | 25509 ft | 380 kts | 285° |
| 2026-04-23 17:14 | 42.10953 | 43.76106 | 26049 ft | 382 kts | 285° |
| 2026-04-23 17:14 | 42.11796 | 43.72696 | 26588 ft | 385 kts | 285° |
| 2026-04-23 17:15 | 42.12643 | 43.69267 | 27123 ft | 386 kts | 285° |
| 2026-04-23 17:15 | 42.13494 | 43.65823 | 27633 ft | 389 kts | 285° |
| 2026-04-23 17:15 | 42.14348 | 43.62359 | 28126 ft | 391 kts | 285° |
| 2026-04-23 17:15 | 42.15206 | 43.58871 | 28590 ft | 393 kts | 285° |
| 2026-04-23 17:16 | 42.16070 | 43.55360 | 29050 ft | 396 kts | 285° |
| 2026-04-23 17:16 | 42.16937 | 43.51828 | 29468 ft | 398 kts | 285° |
| 2026-04-23 17:16 | 42.17807 | 43.48275 | 29902 ft | 400 kts | 285° |
| 2026-04-23 17:16 | 42.18682 | 43.44701 | 30299 ft | 402 kts | 285° |
| 2026-04-23 17:17 | 42.19558 | 43.41117 | 30700 ft | 404 kts | 285° |
| 2026-04-23 17:17 | 42.20439 | 43.37507 | 31092 ft | 405 kts | 285° |
| 2026-04-23 17:17 | 42.21319 | 43.33897 | 31578 ft | 404 kts | 285° |
| 2026-04-23 17:17 | 42.22194 | 43.30304 | 32115 ft | 402 kts | 284° |
| 2026-04-23 17:18 | 42.23924 | 43.23179 | 33181 ft | 397 kts | 284° |
| 2026-04-23 17:18 | 42.24781 | 43.19639 | 33684 ft | 396 kts | 284° |
| 2026-04-23 17:18 | 42.25632 | 43.16120 | 34124 ft | 394 kts | 284° |
| 2026-04-23 17:19 | 42.26480 | 43.12605 | 34435 ft | 395 kts | 284° |
| 2026-04-23 17:19 | 42.27329 | 43.09075 | 34728 ft | 396 kts | 284° |
| 2026-04-23 17:19 | 42.28180 | 43.05539 | 34994 ft | 397 kts | 284° |
| 2026-04-23 17:19 | 42.29046 | 43.01994 | 35278 ft | 397 kts | 284° |
| 2026-04-23 17:20 | 42.29918 | 42.98455 | 35585 ft | 398 kts | 284° |
| 2026-04-23 17:20 | 42.31673 | 42.91340 | 36132 ft | 399 kts | 284° |
| 2026-04-23 17:21 | 42.33413 | 42.84252 | 36664 ft | 400 kts | 285° |
| 2026-04-23 17:21 | 42.34286 | 42.80679 | 36930 ft | 401 kts | 285° |
| 2026-04-23 17:21 | 42.36033 | 42.73506 | 37407 ft | 402 kts | 285° |
| 2026-04-23 17:22 | 42.36906 | 42.69908 | 37666 ft | 403 kts | 285° |
| 2026-04-23 17:22 | 42.38656 | 42.62687 | 37961 ft | 404 kts | 285° |
| 2026-04-23 17:23 | 42.41262 | 42.51901 | 37968 ft | 401 kts | 285° |
| 2026-04-23 17:24 | 42.43850 | 42.41134 | 37968 ft | 400 kts | 284° |
| 2026-04-23 17:24 | 42.46417 | 42.30402 | 37972 ft | 399 kts | 284° |
| 2026-04-23 17:25 | 42.48965 | 42.19706 | 38031 ft | 399 kts | 284° |
| 2026-04-23 17:26 | 42.52304 | 42.05610 | 37972 ft | 392 kts | 283° |
| 2026-04-23 17:27 | 42.54793 | 41.95039 | 37975 ft | 391 kts | 283° |
| 2026-04-23 17:27 | 42.56431 | 41.88056 | 37979 ft | 391 kts | 283° |
| 2026-04-23 17:28 | 42.58075 | 41.81026 | 37976 ft | 391 kts | 283° |
| 2026-04-23 17:28 | 42.59716 | 41.73987 | 37982 ft | 391 kts | 283° |
| 2026-04-23 17:29 | 42.61353 | 41.66945 | 37973 ft | 391 kts | 283° |
| 2026-04-23 17:30 | 42.63799 | 41.56378 | 37971 ft | 391 kts | 283° |
| 2026-04-23 17:30 | 42.66232 | 41.45818 | 37965 ft | 391 kts | 283° |
| 2026-04-23 17:31 | 42.67838 | 41.38820 | 37964 ft | 391 kts | 283° |
| 2026-04-23 17:31 | 42.69451 | 41.31769 | 37955 ft | 391 kts | 283° |
| 2026-04-23 17:32 | 42.71062 | 41.24703 | 37957 ft | 391 kts | 283° |
| 2026-04-23 17:32 | 42.71867 | 41.21162 | 37800 ft | 393 kts | 282° |
| 2026-04-23 17:32 | 42.72677 | 41.17595 | 37279 ft | 395 kts | 282° |
| 2026-04-23 17:33 | 42.73490 | 41.14015 | 36558 ft | 397 kts | 282° |
| 2026-04-23 17:33 | 42.74308 | 41.10415 | 35771 ft | 398 kts | 281° |
| 2026-04-23 17:33 | 42.75123 | 41.06829 | 35077 ft | 396 kts | 280° |
| 2026-04-23 17:33 | 42.75933 | 41.03265 | 34383 ft | 393 kts | 279° |
| 2026-04-23 17:34 | 42.76734 | 40.99729 | 33652 ft | 390 kts | 279° |
| 2026-04-23 17:34 | 42.77530 | 40.96194 | 32679 ft | 391 kts | 279° |
| 2026-04-23 17:34 | 42.79113 | 40.89126 | 31044 ft | 389 kts | 279° |
| 2026-04-23 17:35 | 42.79903 | 40.85593 | 30162 ft | 390 kts | 279° |
| 2026-04-23 17:35 | 42.81465 | 40.78610 | 28921 ft | 376 kts | 279° |
| 2026-04-23 17:35 | 42.82219 | 40.75253 | 28643 ft | 365 kts | 278° |
| 2026-04-23 17:36 | 42.82956 | 40.71930 | 28380 ft | 368 kts | 278° |
| 2026-04-23 17:36 | 42.83685 | 40.68613 | 27951 ft | 372 kts | 278° |
| 2026-04-23 17:36 | 42.84439 | 40.65185 | 27324 ft | 372 kts | 278° |
| 2026-04-23 17:36 | 42.85182 | 40.61828 | 26728 ft | 368 kts | 278° |
| 2026-04-23 17:37 | 42.85907 | 40.58554 | 26142 ft | 363 kts | 278° |
| 2026-04-23 17:37 | 42.86632 | 40.55274 | 25547 ft | 359 kts | 278° |
| 2026-04-23 17:37 | 42.88051 | 40.48828 | 24334 ft | 352 kts | 278° |
| 2026-04-23 17:38 | 42.88748 | 40.45647 | 23782 ft | 348 kts | 278° |
| 2026-04-23 17:38 | 42.89438 | 40.42495 | 23139 ft | 345 kts | 278° |
| 2026-04-23 17:38 | 42.90120 | 40.39383 | 22566 ft | 340 kts | 278° |
| 2026-04-23 17:38 | 42.90791 | 40.36318 | 21989 ft | 335 kts | 277° |
| 2026-04-23 17:39 | 42.91450 | 40.33299 | 21420 ft | 330 kts | 277° |
| 2026-04-23 17:39 | 42.92101 | 40.30311 | 20851 ft | 326 kts | 277° |
| 2026-04-23 17:39 | 42.92742 | 40.27361 | 20285 ft | 323 kts | 277° |
| 2026-04-23 17:39 | 42.93376 | 40.24436 | 19722 ft | 320 kts | 277° |
| 2026-04-23 17:40 | 42.94004 | 40.21539 | 19162 ft | 317 kts | 277° |
| 2026-04-23 17:40 | 42.94625 | 40.18665 | 18604 ft | 315 kts | 277° |
| 2026-04-23 17:40 | 42.95241 | 40.15811 | 18018 ft | 313 kts | 278° |
| 2026-04-23 17:40 | 42.95851 | 40.12976 | 17443 ft | 309 kts | 278° |
| 2026-04-23 17:41 | 42.96453 | 40.10178 | 16897 ft | 306 kts | 278° |
| 2026-04-23 17:41 | 42.97642 | 40.04638 | 15796 ft | 302 kts | 279° |
| 2026-04-23 17:41 | 42.98221 | 40.01934 | 15252 ft | 301 kts | 280° |
| 2026-04-23 17:42 | 42.99400 | 39.96468 | 14167 ft | 300 kts | 282° |
| 2026-04-23 17:42 | 43.00027 | 39.93746 | 13609 ft | 300 kts | 283° |
| 2026-04-23 17:42 | 43.00666 | 39.91046 | 13076 ft | 298 kts | 284° |
| 2026-04-23 17:43 | 43.01305 | 39.88347 | 12524 ft | 297 kts | 284° |
| 2026-04-23 17:43 | 43.01938 | 39.85658 | 11980 ft | 297 kts | 284° |
| 2026-04-23 17:43 | 43.02565 | 39.82977 | 11432 ft | 297 kts | 284° |
| 2026-04-23 17:43 | 43.03193 | 39.80278 | 11107 ft | 307 kts | 284° |
| 2026-04-23 17:44 | 43.03851 | 39.77431 | 11013 ft | 315 kts | 284° |
| 2026-04-23 17:44 | 43.04511 | 39.74578 | 10982 ft | 313 kts | 284° |
| 2026-04-23 17:44 | 43.05758 | 39.69179 | 10691 ft | 280 kts | 284° |
| 2026-04-23 17:45 | 43.06334 | 39.66680 | 10244 ft | 273 kts | 284° |
| 2026-04-23 17:45 | 43.07783 | 39.61912 | 8880 ft | 276 kts | 307° |
| 2026-04-23 17:45 | 43.09311 | 39.60317 | 8203 ft | 281 kts | 334° |
| 2026-04-23 17:46 | 43.13140 | 39.60484 | 6947 ft | 287 kts | 27° |
| 2026-04-23 17:46 | 43.14672 | 39.62213 | 6354 ft | 286 kts | 49° |
| 2026-04-23 17:46 | 43.15863 | 39.64375 | 5789 ft | 283 kts | 54° |
| 2026-04-23 17:47 | 43.17001 | 39.66553 | 5201 ft | 280 kts | 53° |
| 2026-04-23 17:47 | 43.18188 | 39.68650 | 4641 ft | 277 kts | 50° |
| 2026-04-23 17:47 | 43.20676 | 39.72606 | 3495 ft | 272 kts | 47° |
| 2026-04-23 17:48 | 43.21922 | 39.74492 | 2972 ft | 268 kts | 46° |
| 2026-04-23 17:48 | 43.23161 | 39.76352 | 2586 ft | 260 kts | 46° |
| 2026-04-23 17:48 | 43.24363 | 39.78155 | 2208 ft | 255 kts | 46° |
| 2026-04-23 17:48 | 43.25551 | 39.79940 | 2025 ft | 251 kts | 46° |
| 2026-04-23 17:49 | 43.26715 | 39.81647 | 1987 ft | 238 kts | 41° |
| 2026-04-23 17:49 | 43.27998 | 39.82961 | 2000 ft | 222 kts | 28° |
| 2026-04-23 17:49 | 43.29313 | 39.83917 | 1999 ft | 206 kts | 26° |
| 2026-04-23 17:49 | 43.30530 | 39.84787 | 2019 ft | 185 kts | 26° |
| 2026-04-23 17:50 | 43.31559 | 39.85550 | 1993 ft | 151 kts | 26° |
| 2026-04-23 17:50 | 43.33242 | 39.86806 | 2003 ft | 133 kts | 26° |
| 2026-04-23 17:50 | 43.34062 | 39.87421 | 1996 ft | 135 kts | 26° |
| 2026-04-23 17:51 | 43.34889 | 39.88041 | 1941 ft | 137 kts | 26° |
| 2026-04-23 17:51 | 43.35715 | 39.88661 | 1761 ft | 134 kts | 26° |
| 2026-04-23 17:51 | 43.37343 | 39.89884 | 1392 ft | 132 kts | 27° |
| 2026-04-23 17:52 | 43.38147 | 39.90487 | 1208 ft | 131 kts | 27° |
| 2026-04-23 17:52 | 43.39712 | 39.91666 | 874 ft | 128 kts | 28° |
| 2026-04-23 17:52 | 43.40506 | 39.92258 | 737 ft | 127 kts | 28° |
| 2026-04-23 17:53 | 43.42030 | 39.93400 | 388 ft | 124 kts | 28° |
| 2026-04-23 17:53 | 43.42784 | 39.93971 | 243 ft | 123 kts | 28° |
| 2026-04-23 17:53 | 43.43531 | 39.94531 | 97 ft | 122 kts | 29° |
| 2026-04-23 17:54 | 43.44199 | 39.95040 | 73 ft | 85 kts | 28° |
| 2026-04-23 17:54 | 43.44541 | 39.95297 | 85 ft | 27 kts | 28° |
| 2026-04-23 17:54 | 43.44841 | 39.95521 | 91 ft | 24 kts | 28° |
| 2026-04-23 17:55 | 43.45030 | 39.95531 | 91 ft | 12 kts | 334° |
| 2026-04-23 17:55 | 43.45046 | 39.95520 | 91 ft | 2 kts | 327° |
| 2026-04-23 17:55 | 43.45057 | 39.95492 | 92 ft | 5 kts | 289° |
| 2026-04-23 17:56 | 43.45045 | 39.95422 | 91 ft | 11 kts | 250° |
| 2026-04-23 17:56 | 43.44945 | 39.95134 | 82 ft | 22 kts | 239° |
| 2026-04-23 17:56 | 43.44876 | 39.94940 | 72 ft | 12 kts | 245° |
| 2026-04-23 17:57 | 43.44851 | 39.94868 | 67 ft | 15 kts | 245° |
| 2026-04-23 17:57 | 43.44782 | 39.94665 | 71 ft | 20 kts | 244° |
| 2026-04-23 17:57 | 43.44660 | 39.94308 | 67 ft | 14 kts | 245° |
| 2026-04-23 17:58 | 43.44661 | 39.94238 | 74 ft | 7 kts | 333° |
| 2026-04-23 17:58 | 43.44718 | 39.94203 | 68 ft | 9 kts | 335° |
| 2026-04-23 17:58 | 43.44747 | 39.94184 | 66 ft | 0 kts | 335° |
| 2026-04-23 17:58 | 43.44748 | 39.94184 | 66 ft | 0 kts | 335° |